Time;durP1;ratioP1;P1;durP2;ratioP2;P2;SDS_P1;SDS_P2;PMS_P1;PMS_P2;Temp;Humidity;BMP_temperature;BMP_pressure;BME280_temperature;BME280_humidity;BME280_pressure;Samples;Min_cycle;Max_cycle;Signal;HPM_P1;HPM_P2
2021/09/19 00:00:27;;;;;;;7.57;4.93;;;14.90;93.40;;;12.59;100.00;100506.38;5089152;28;20047;-72
2021/09/19 00:02:57;;;;;;;7.63;5.03;;;14.90;93.50;;;12.52;100.00;100501.66;5070606;28;20527;-72
2021/09/19 00:05:25;;;;;;;6.90;4.55;;;14.90;93.50;;;12.59;100.00;100509.94;5088516;28;20101;-72
2021/09/19 00:07:56;;;;;;;8.75;4.85;;;14.90;93.60;;;12.52;100.00;100512.59;5070597;28;20087;-72
2021/09/19 00:10:25;;;;;;;6.82;4.72;;;14.80;93.40;;;12.52;100.00;100512.59;5088726;28;20036;-72
2021/09/19 00:12:53;;;;;;;9.65;4.70;;;14.80;93.40;;;12.54;100.00;100509.66;5088554;28;20079;-72
2021/09/19 00:15:23;;;;;;;9.02;5.00;;;14.80;93.40;;;12.41;100.00;100507.66;5087647;28;20492;-72
2021/09/19 00:17:51;;;;;;;6.75;4.82;;;14.80;93.50;;;12.46;100.00;100504.38;5088486;28;20052;-72
2021/09/19 00:20:21;;;;;;;7.38;5.15;;;14.80;93.50;;;12.42;100.00;100506.63;5070109;28;20036;-71
2021/09/19 00:22:49;;;;;;;8.82;4.75;;;14.70;93.60;;;12.42;100.00;100508.53;5088756;28;20047;-72
2021/09/19 00:25:16;;;;;;;13.18;5.13;;;14.70;93.50;;;12.35;100.00;100505.72;5082348;28;20160;-72
2021/09/19 00:27:48;;;;;;;6.75;4.97;;;14.70;93.60;;;12.36;100.00;100507.44;5050198;28;20048;-72
2021/09/19 00:30:15;;;;;;;9.52;5.57;;;14.70;93.60;;;12.28;100.00;100502.09;5033738;28;20052;-72
2021/09/19 00:32:43;;;;;;;8.20;4.60;;;14.70;93.60;;;12.23;100.00;100499.97;5067633;28;20055;-72
2021/09/19 00:35:11;;;;;;;9.25;4.88;;;14.60;93.40;;;12.33;100.00;100502.34;5068234;28;20058;-72
2021/09/19 00:37:39;;;;;;;8.05;4.72;;;14.60;93.50;;;12.19;100.00;100489.66;5067928;28;20222;-72
2021/09/19 00:40:11;;;;;;;8.68;5.00;;;14.60;93.50;;;12.23;100.00;100490.94;5067768;28;20127;-72
2021/09/19 00:42:39;;;;;;;9.55;4.80;;;14.60;93.60;;;12.18;100.00;100488.78;5081879;28;20051;-72
2021/09/19 00:45:15;;;;;;;6.57;4.47;;;14.60;93.70;;;12.15;100.00;100499.25;5068104;28;20127;-72
2021/09/19 00:47:43;;;;;;;11.18;5.15;;;14.60;93.70;;;12.12;100.00;100495.88;5067620;28;20113;-72
2021/09/19 00:50:13;;;;;;;7.90;4.55;;;14.50;93.70;;;12.11;100.00;100490.63;5067845;28;20131;-72
2021/09/19 00:52:44;;;;;;;8.80;5.50;;;14.50;93.80;;;12.05;100.00;100499.56;5066152;28;20048;-72
2021/09/19 00:55:14;;;;;;;8.43;5.15;;;14.50;93.90;;;12.05;100.00;100499.56;5067153;28;20463;-72
2021/09/19 00:57:47;;;;;;;6.57;4.32;;;14.50;93.80;;;12.01;100.00;100499.13;5067789;28;20052;-72
2021/09/19 01:00:21;;;;;;;8.50;4.80;;;14.40;93.70;;;12.02;100.00;100498.09;5067599;28;20044;-72
2021/09/19 01:02:51;;;;;;;7.10;4.45;;;14.40;93.80;;;11.93;100.00;100505.53;5067150;28;20063;-72
2021/09/19 01:05:19;;;;;;;9.43;4.57;;;14.40;93.90;;;11.92;100.00;100494.84;5066399;28;20048;-72
2021/09/19 01:07:47;;;;;;;6.38;4.55;;;14.40;93.90;;;12.01;100.00;100492.81;5066320;28;20048;-72
2021/09/19 01:10:17;;;;;;;7.78;4.90;;;14.40;93.90;;;11.96;100.00;100493.41;5049331;28;20049;-72
2021/09/19 01:12:45;;;;;;;7.70;5.28;;;14.30;94.00;;;11.93;100.00;100491.91;5067588;28;20666;-72
2021/09/19 01:15:15;;;;;;;9.15;5.05;;;14.30;94.00;;;11.89;100.00;100500.66;5067438;28;20105;-72
2021/09/19 01:17:46;;;;;;;6.85;4.65;;;14.30;93.90;;;11.95;100.00;100497.16;5049964;28;20415;-71
2021/09/19 01:20:15;;;;;;;7.05;4.90;;;14.30;94.10;;;11.91;100.00;100490.41;5067341;28;20040;-72
2021/09/19 01:22:47;;;;;;;9.43;4.32;;;14.30;94.10;;;11.87;100.00;100497.28;5066971;28;20054;-72
2021/09/19 01:25:17;;;;;;;7.35;4.38;;;14.20;93.90;;;11.81;100.00;100489.88;5049284;28;20055;-72
2021/09/19 01:27:46;;;;;;;6.43;4.32;;;14.20;93.90;;;11.81;100.00;100481.69;5067269;28;20886;-72
2021/09/19 01:30:16;;;;;;;7.93;5.03;;;14.20;93.90;;;11.76;100.00;100492.31;5048781;28;20040;-72
2021/09/19 01:32:44;;;;;;;6.47;4.50;;;14.20;93.90;;;11.71;100.00;100484.75;5066434;28;20076;-72
2021/09/19 01:35:12;;;;;;;6.15;4.38;;;14.20;93.90;;;11.76;100.00;100487.72;5066763;28;20051;-72
2021/09/19 01:37:40;;;;;;;7.32;4.53;;;14.20;94.00;;;11.72;100.00;100489.97;5067099;28;20102;-72
2021/09/19 01:40:09;;;;;;;6.68;4.70;;;14.10;94.00;;;11.77;100.00;100480.41;5066938;28;20072;-72
2021/09/19 01:42:38;;;;;;;7.22;5.03;;;14.10;94.00;;;11.72;100.00;100480.97;5066990;28;20044;-72
2021/09/19 01:45:07;;;;;;;6.80;4.60;;;14.10;94.00;;;11.72;100.00;100481.78;5067239;28;20094;-72
2021/09/19 01:47:37;;;;;;;8.57;4.95;;;14.10;94.20;;;11.67;100.00;100483.41;5067418;28;20048;-72
2021/09/19 01:50:12;;;;;;;9.43;4.45;;;14.00;94.00;;;11.73;100.00;100475.31;5066760;28;20036;-72
2021/09/19 01:52:39;;;;;;;6.18;4.32;;;14.00;94.10;;;11.67;100.00;100473.38;5059585;28;20083;-72
2021/09/19 01:55:08;;;;;;;7.97;5.40;;;14.00;94.00;;;11.68;100.00;100477.78;5087179;28;20517;-72
2021/09/19 01:57:37;;;;;;;8.07;5.68;;;14.00;94.10;;;11.62;100.00;100478.53;5069113;28;20072;-72
2021/09/19 02:00:10;;;;;;;9.68;5.63;;;14.00;94.10;;;11.66;100.00;100474.38;5068995;28;20063;-72
2021/09/19 02:02:39;;;;;;;14.68;5.70;;;14.00;94.30;;;11.62;100.00;100464.91;5087116;28;20496;-72
2021/09/19 02:05:14;;;;;;;9.35;5.43;;;14.00;94.30;;;11.57;100.00;100464.63;5087154;28;20101;-72
2021/09/19 02:07:41;;;;;;;8.13;5.15;;;13.90;94.30;;;11.59;100.00;100456.28;5087155;28;20048;-72
2021/09/19 02:10:14;;;;;;;7.93;4.80;;;13.90;94.40;;;11.53;100.00;100463.34;5087228;28;20079;-72
2021/09/19 02:12:44;;;;;;;8.40;5.55;;;13.90;94.20;;;11.45;100.00;100458.84;5087218;28;20492;-72
2021/09/19 02:15:14;;;;;;;8.07;5.40;;;13.90;94.20;;;11.48;100.00;100465.78;5065099;28;20051;-72
2021/09/19 02:17:41;;;;;;;7.65;5.07;;;13.80;94.10;;;11.47;100.00;100454.06;5072787;28;20441;-72
2021/09/19 02:20:12;;;;;;;9.05;5.28;;;13.90;94.10;;;11.45;100.00;100461.56;5091037;28;20040;-72
2021/09/19 02:22:46;;;;;;;9.68;4.63;;;13.90;94.30;;;11.34;100.00;100452.00;5090804;28;20040;-72
2021/09/19 02:25:15;;;;;;;8.07;4.95;;;13.80;94.40;;;11.44;100.00;100459.03;5072717;28;20040;-72
2021/09/19 02:27:44;;;;;;;8.00;5.40;;;13.80;94.60;;;11.51;100.00;100454.50;5090981;28;20059;-72
2021/09/19 02:30:17;;;;;;;6.32;4.90;;;13.80;94.60;;;11.48;100.00;100443.97;5072950;28;20105;-72
2021/09/19 02:32:47;;;;;;;7.60;5.70;;;13.80;94.60;;;11.52;100.00;100450.75;5090967;28;20051;-72
2021/09/19 02:35:18;;;;;;;9.10;4.95;;;13.80;94.80;;;11.64;100.00;100446.47;5091128;28;20048;-72
2021/09/19 02:37:47;;;;;;;6.78;4.95;;;13.80;94.90;;;11.66;100.00;100452.59;5072979;28;20051;-72
2021/09/19 02:40:16;;;;;;;8.30;5.60;;;13.80;95.10;;;11.60;100.00;100453.38;5072988;28;20075;-72
2021/09/19 02:42:48;;;;;;;9.63;5.40;;;13.80;95.10;;;11.58;100.00;100455.44;5090999;28;20400;-72
2021/09/19 02:45:16;;;;;;;7.97;4.78;;;13.80;95.20;;;11.63;100.00;100447.53;5073001;28;20958;-72
2021/09/19 02:47:44;;;;;;;10.02;5.82;;;13.80;95.20;;;11.69;100.00;100452.22;5090909;28;20089;-72
2021/09/19 02:50:15;;;;;;;7.90;5.20;;;13.80;95.40;;;11.71;100.00;100441.94;5090904;28;20859;-71
2021/09/19 02:52:42;;;;;;;7.45;5.28;;;13.80;95.40;;;11.81;100.00;100449.81;5089342;28;20051;-72
2021/09/19 02:55:11;;;;;;;9.35;5.18;;;13.90;95.60;;;11.83;100.00;100446.88;5090610;28;20181;-72
2021/09/19 02:57:39;;;;;;;8.95;5.40;;;13.90;95.80;;;11.89;100.00;100444.25;5090864;28;20113;-72
2021/09/19 03:00:14;;;;;;;6.93;4.90;;;13.90;95.90;;;11.87;100.00;100442.72;5090660;28;20051;-73
2021/09/19 03:02:43;;;;;;;7.63;5.13;;;13.90;96.00;;;11.88;100.00;100444.41;5072228;28;20840;-72
2021/09/19 03:05:14;;;;;;;8.00;5.30;;;14.00;96.40;;;12.02;100.00;100439.97;5072228;28;20040;-72
2021/09/19 03:07:44;;;;;;;7.20;4.65;;;14.00;96.60;;;12.05;100.00;100440.44;5090784;28;20051;-72
2021/09/19 03:10:17;;;;;;;8.63;5.15;;;14.00;96.70;;;12.08;100.00;100444.63;5072099;28;20055;-72
2021/09/19 03:12:45;;;;;;;10.00;5.68;;;14.00;96.70;;;12.10;100.00;100439.81;5089756;28;20430;-72
2021/09/19 03:15:15;;;;;;;10.43;4.93;;;14.00;96.70;;;12.13;100.00;100442.16;5090314;28;20123;-72
2021/09/19 03:17:43;;;;;;;12.60;6.25;;;14.10;96.80;;;12.08;100.00;100434.56;5090311;28;20128;-72
2021/09/19 03:20:17;;;;;;;11.93;6.05;;;14.10;96.90;;;12.11;100.00;100439.63;5090271;28;20036;-72
2021/09/19 03:22:45;;;;;;;8.93;5.40;;;14.10;96.80;;;12.17;100.00;100437.16;5071814;28;20581;-72
2021/09/19 03:25:14;;;;;;;9.50;5.68;;;14.20;96.90;;;12.21;100.00;100431.09;5089848;28;20044;-72
2021/09/19 03:27:53;;;;;;;10.00;5.40;;;14.20;96.80;;;12.26;100.00;100436.81;5090156;28;20068;-72
2021/09/19 03:30:22;;;;;;;7.35;4.95;;;14.20;96.90;;;12.31;100.00;100433.50;5070390;28;20048;-72
2021/09/19 03:32:49;;;;;;;7.38;5.32;;;14.20;96.90;;;12.19;100.00;100429.63;5051629;28;20049;-72
2021/09/19 03:35:17;;;;;;;8.32;5.63;;;14.20;97.00;;;12.23;100.00;100439.09;5084252;28;20048;-72
2021/09/19 03:37:45;;;;;;;9.10;5.10;;;14.30;96.90;;;12.24;100.00;100446.22;5089901;28;20048;-72
2021/09/19 03:40:14;;;;;;;7.72;5.25;;;14.30;96.90;;;12.18;100.00;100444.28;5089698;28;20047;-72
2021/09/19 03:42:42;;;;;;;8.93;5.60;;;14.30;96.90;;;12.12;100.00;100432.28;5089514;28;20052;-72
2021/09/19 03:45:12;;;;;;;8.45;5.72;;;14.30;96.90;;;12.12;100.00;100435.84;5071523;28;20044;-72
2021/09/19 03:47:41;;;;;;;10.50;5.05;;;14.30;96.60;;;12.13;100.00;100437.56;5089542;28;20457;-72
2021/09/19 03:50:10;;;;;;;10.82;6.07;;;14.30;96.60;;;12.15;100.00;100433.75;5089524;28;20118;-72
2021/09/19 03:52:37;;;;;;;8.20;5.38;;;14.30;96.60;;;12.10;100.00;100434.38;5089233;28;20105;-72
2021/09/19 03:55:06;;;;;;;7.90;4.85;;;14.30;96.50;;;12.03;100.00;100437.06;5085647;28;20059;-72
2021/09/19 03:57:34;;;;;;;7.03;5.00;;;14.30;96.40;;;12.02;100.00;100434.53;5069256;28;20047;-72
2021/09/19 04:00:01;;;;;;;8.35;5.60;;;14.20;96.30;;;11.91;100.00;100441.34;5069229;28;20028;-72
2021/09/19 04:02:41;;;;;;;6.57;5.03;;;14.20;96.30;;;11.95;100.00;100433.59;5068759;28;20443;-72
2021/09/19 04:05:10;;;;;;;9.15;5.72;;;14.20;96.10;;;11.92;100.00;100443.88;5069126;28;20047;-72
2021/09/19 04:07:41;;;;;;;8.10;4.45;;;14.20;96.10;;;11.91;100.00;100435.88;5069167;28;20124;-72
2021/09/19 04:10:11;;;;;;;7.30;5.20;;;14.10;96.00;;;11.89;100.00;100430.63;5050838;28;20044;-72
2021/09/19 04:12:39;;;;;;;9.63;5.93;;;14.10;96.00;;;11.79;100.00;100429.25;5050771;28;20048;-72
2021/09/19 04:15:08;;;;;;;7.28;5.72;;;14.10;95.90;;;11.63;100.00;100436.63;5068839;28;20052;-72
2021/09/19 04:17:36;;;;;;;6.88;5.13;;;14.00;95.80;;;11.59;100.00;100434.47;5050915;28;20051;-72
2021/09/19 04:20:07;;;;;;;8.13;4.50;;;14.00;95.70;;;11.50;100.00;100436.50;5074436;28;20040;-72
2021/09/19 04:22:35;;;;;;;8.98;5.47;;;14.00;95.60;;;11.44;100.00;100432.66;5070450;28;20405;-72
2021/09/19 04:25:02;;;;;;;7.28;4.72;;;13.90;95.70;;;11.47;100.00;100434.97;5089095;28;20098;-72
2021/09/19 04:27:30;;;;;;;7.28;4.80;;;13.90;95.70;;;11.47;100.00;100431.41;5088940;28;20469;-72
2021/09/19 04:29:57;;;;;;;7.88;4.68;;;13.90;95.70;;;11.46;100.00;100441.47;5088773;28;20491;-72
2021/09/19 04:32:24;;;;;;;9.27;5.40;;;13.90;95.60;;;11.46;100.00;100429.72;5070423;28;20101;-72
2021/09/19 04:34:53;;;;;;;7.80;5.13;;;13.80;95.60;;;11.38;100.00;100433.41;5088796;28;20044;-72
2021/09/19 04:37:22;;;;;;;8.02;4.70;;;13.80;95.50;;;11.34;100.00;100434.81;5088052;28;20068;-72
2021/09/19 04:39:49;;;;;;;7.22;4.85;;;13.80;95.50;;;11.38;100.00;100440.72;5088917;28;20047;-72
2021/09/19 04:42:17;;;;;;;7.95;5.10;;;13.70;95.60;;;11.32;100.00;100451.34;5088163;28;20431;-72
2021/09/19 04:44:44;;;;;;;8.48;4.60;;;13.70;95.50;;;11.27;100.00;100447.50;5070696;28;20044;-72
2021/09/19 04:47:12;;;;;;;6.55;4.78;;;13.60;95.40;;;11.29;100.00;100449.03;5088701;28;20043;-72
2021/09/19 04:49:40;;;;;;;7.63;5.10;;;13.60;95.40;;;11.23;100.00;100448.94;5070428;28;20439;-72
2021/09/19 04:52:07;;;;;;;7.60;4.80;;;13.60;95.40;;;11.20;100.00;100441.16;5087781;28;20127;-72
2021/09/19 04:54:36;;;;;;;6.72;4.72;;;13.60;95.40;;;11.14;100.00;100448.22;5087856;28;20153;-72
2021/09/19 04:57:04;;;;;;;7.85;4.85;;;13.50;95.30;;;11.06;100.00;100443.72;5102090;22;20056;-73
2021/09/19 04:59:31;;;;;;;9.05;5.20;;;13.50;95.40;;;11.09;100.00;100450.66;5086674;28;20479;-73
2021/09/19 05:01:59;;;;;;;7.28;5.32;;;13.50;95.30;;;11.01;100.00;100448.88;5088001;28;20080;-73
2021/09/19 05:04:27;;;;;;;7.30;4.97;;;13.50;95.30;;;11.02;100.00;100449.72;5087595;28;20117;-73
2021/09/19 05:06:54;;;;;;;8.05;4.78;;;13.50;95.30;;;11.09;100.00;100448.75;5088331;28;20423;-73
2021/09/19 05:09:22;;;;;;;8.00;4.43;;;13.40;95.20;;;11.08;100.00;100447.09;5088096;28;20142;-73
2021/09/19 05:11:51;;;;;;;7.78;4.80;;;13.40;95.30;;;11.02;100.00;100444.28;5088119;28;20567;-73
2021/09/19 05:14:18;;;;;;;7.05;4.60;;;13.40;95.30;;;10.91;100.00;100441.00;5089158;28;20051;-75
2021/09/19 05:16:48;;;;;;;8.15;5.05;;;13.30;95.30;;;10.80;100.00;100449.63;5090403;28;20036;-73
2021/09/19 05:19:15;;;;;;;8.65;4.80;;;13.30;95.20;;;10.76;100.00;100461.94;5088934;28;20111;-76
2021/09/19 05:21:43;;;;;;;7.65;4.75;;;13.30;95.10;;;10.81;100.00;100455.91;5091417;28;20040;-74
2021/09/19 05:24:10;;;;;;;7.53;4.47;;;13.30;95.20;;;10.82;100.00;100460.34;5090063;28;20048;-74
2021/09/19 05:26:38;;;;;;;9.27;4.80;;;13.30;95.30;;;10.83;100.00;100457.41;5090231;28;20044;-73
2021/09/19 05:29:06;;;;;;;6.20;4.35;;;13.30;95.40;;;10.91;100.00;100464.66;5086630;28;20040;-72
2021/09/19 05:31:34;;;;;;;7.70;4.90;;;13.30;95.40;;;10.92;100.00;100458.19;5102964;28;20098;-72
2021/09/19 05:34:03;;;;;;;7.15;4.40;;;13.20;95.40;;;10.90;100.00;100461.09;5087770;28;20067;-73
2021/09/19 05:36:32;;;;;;;7.43;4.35;;;13.20;95.40;;;10.99;100.00;100458.28;5086013;28;20502;-72
2021/09/19 05:39:00;;;;;;;6.05;4.38;;;13.20;95.70;;;11.12;100.00;100451.13;5087813;28;20048;-71
2021/09/19 05:41:29;;;;;;;6.00;4.30;;;13.20;95.80;;;11.15;100.00;100455.34;5087171;28;20136;-72
2021/09/19 05:43:56;;;;;;;10.30;4.10;;;13.20;96.20;;;11.18;100.00;100454.13;5088308;28;20543;-73
2021/09/19 05:46:25;;;;;;;6.70;4.65;;;13.30;96.40;;;11.27;100.00;100453.84;5087061;28;20044;-72
2021/09/19 05:48:53;;;;;;;9.65;5.00;;;13.30;96.40;;;11.32;100.00;100451.34;5088783;28;20044;-72
2021/09/19 05:51:22;;;;;;;9.30;4.60;;;13.30;96.70;;;11.48;100.00;100452.16;5089725;28;20063;-73
2021/09/19 05:53:49;;;;;;;9.88;5.68;;;13.30;96.90;;;11.61;100.00;100455.03;5091701;28;20756;-73
2021/09/19 05:56:17;;;;;;;10.32;4.55;;;13.40;97.10;;;11.71;100.00;100457.47;5102511;28;20036;-73
2021/09/19 05:58:44;;;;;;;6.20;4.47;;;13.50;97.30;;;11.81;100.00;100459.88;5111212;28;20232;-73
2021/09/19 06:01:12;;;;;;;10.65;5.10;;;13.50;97.60;;;11.85;100.00;100461.19;5111518;28;20052;-73
2021/09/19 06:03:43;;;;;;;7.53;4.90;;;13.50;97.70;;;12.02;100.00;100462.63;5111743;28;20063;-73
2021/09/19 06:06:10;;;;;;;8.43;5.32;;;13.60;97.80;;;12.18;100.00;100463.41;5110403;28;20052;-73
2021/09/19 06:08:37;;;;;;;10.55;4.68;;;13.60;98.20;;;12.25;100.00;100450.66;5112244;28;20089;-74
2021/09/19 06:11:05;;;;;;;7.97;4.70;;;13.70;98.60;;;12.40;100.00;100454.13;5111582;28;20050;-73
2021/09/19 06:13:33;;;;;;;8.15;4.90;;;13.80;98.50;;;12.59;100.00;100457.22;5111669;28;20499;-73
2021/09/19 06:16:00;;;;;;;8.00;5.03;;;13.90;98.50;;;12.65;100.00;100461.88;5107973;28;20079;-73
2021/09/19 06:18:28;;;;;;;7.95;4.78;;;13.90;98.40;;;12.80;100.00;100462.59;5127330;27;20533;-72
2021/09/19 06:20:57;;;;;;;11.48;4.95;;;14.00;98.30;;;12.92;100.00;100465.59;5110912;28;20800;-73
2021/09/19 06:23:24;;;;;;;7.50;4.65;;;14.00;98.70;;;13.07;100.00;100460.84;5112595;28;20117;-73
2021/09/19 06:25:52;;;;;;;7.82;5.03;;;14.10;98.80;;;13.15;100.00;100459.84;5114821;28;20746;-73
2021/09/19 06:28:20;;;;;;;9.57;4.93;;;14.20;99.00;;;13.17;100.00;100455.00;5110958;28;20056;-74
2021/09/19 06:30:47;;;;;;;8.50;5.40;;;14.30;99.00;;;13.22;100.00;100462.63;5111026;28;20071;-71
2021/09/19 06:33:15;;;;;;;6.28;4.43;;;14.40;98.60;;;13.22;100.00;100460.72;5111809;28;20514;-72
2021/09/19 06:35:42;;;;;;;8.70;5.25;;;14.40;98.40;;;13.23;100.00;100462.44;5105256;27;20066;-70
2021/09/19 06:38:11;;;;;;;8.05;5.13;;;14.50;98.40;;;13.28;100.00;100462.63;5104632;28;20051;-70
2021/09/19 06:40:38;;;;;;;8.75;4.90;;;14.60;98.20;;;13.39;99.27;100463.97;5126352;27;20052;-70
2021/09/19 06:43:05;;;;;;;7.10;4.72;;;14.60;97.70;;;13.44;98.11;100468.81;5110797;28;20541;-71
2021/09/19 06:45:33;;;;;;;7.50;5.32;;;14.60;97.50;;;13.51;99.04;100466.97;5109607;28;20047;-71
2021/09/19 06:48:00;;;;;;;7.38;5.15;;;14.70;97.80;;;13.53;98.39;100464.88;5110983;28;20498;-71
2021/09/19 06:50:27;;;;;;;8.93;5.45;;;14.70;97.90;;;13.61;97.85;100456.50;5110668;28;20036;-71
2021/09/19 06:52:55;;;;;;;7.45;5.00;;;14.80;97.30;;;13.66;97.39;100461.34;5108190;28;20130;-70
2021/09/19 06:55:24;;;;;;;7.40;5.15;;;14.80;97.20;;;13.74;97.06;100460.31;5094547;28;20113;-70
2021/09/19 06:57:56;;;;;;;8.45;4.68;;;14.90;97.30;;;13.88;97.24;100462.03;5090709;28;20098;-70
2021/09/19 07:00:24;;;;;;;7.47;4.97;;;14.90;97.30;;;14.01;96.36;100461.19;5089581;28;20044;-71
2021/09/19 07:02:51;;;;;;;9.13;5.10;;;14.90;97.20;;;14.05;96.01;100456.97;5089694;28;20050;-72
2021/09/19 07:05:19;;;;;;;11.63;5.38;;;15.00;97.30;;;13.99;96.22;100458.69;5088455;28;20499;-71
2021/09/19 07:07:47;;;;;;;8.77;5.60;;;15.00;97.40;;;14.07;96.50;100461.22;5088145;28;20067;-69
2021/09/19 07:10:15;;;;;;;7.63;5.05;;;15.10;97.40;;;13.99;96.17;100458.69;5090028;28;20574;-70
2021/09/19 07:12:44;;;;;;;8.82;5.40;;;15.10;96.80;;;14.12;96.34;100462.47;5086699;28;20495;-72
2021/09/19 07:15:12;;;;;;;6.85;5.10;;;15.20;97.00;;;14.19;96.27;100463.31;5071418;28;20044;-73
2021/09/19 07:17:39;;;;;;;7.63;5.30;;;15.20;97.10;;;14.21;95.89;100464.78;5090069;28;20541;-72
2021/09/19 07:20:09;;;;;;;9.15;5.80;;;15.30;97.00;;;14.23;96.27;100467.31;5076995;28;20051;-73
2021/09/19 07:22:42;;;;;;;11.23;5.72;;;15.30;96.80;;;14.27;96.58;100461.19;5079748;28;20039;-72
2021/09/19 07:25:11;;;;;;;9.13;5.43;;;15.40;97.10;;;14.29;96.91;100466.47;5109695;28;20047;-72
2021/09/19 07:27:39;;;;;;;15.48;5.47;;;15.40;97.20;;;14.37;96.60;100469.00;5110300;28;20067;-72
2021/09/19 07:30:11;;;;;;;7.55;5.43;;;15.50;97.00;;;14.43;97.29;100464.56;5091896;28;20465;-72
2021/09/19 07:32:39;;;;;;;11.20;5.53;;;15.60;97.00;;;14.44;95.69;100461.63;5109983;28;20449;-71
2021/09/19 07:35:10;;;;;;;7.85;5.32;;;15.60;96.30;;;14.46;96.28;100467.72;5110000;28;20048;-72
2021/09/19 07:37:43;;;;;;;9.15;5.45;;;15.60;96.60;;;14.44;95.57;100463.53;5104319;27;20669;-74
2021/09/19 07:40:12;;;;;;;8.15;5.30;;;15.60;96.20;;;14.57;95.65;100469.03;5090333;28;20063;-70
2021/09/19 07:42:41;;;;;;;8.00;4.80;;;15.70;96.70;;;14.80;94.84;100459.50;5108175;28;20710;-71
2021/09/19 07:45:12;;;;;;;7.60;5.45;;;15.70;96.10;;;14.90;94.32;100461.81;5097351;28;20108;-72
2021/09/19 07:47:41;;;;;;;6.70;4.95;;;15.80;96.30;;;15.02;92.97;100462.81;5106617;28;20086;-71
2021/09/19 07:50:12;;;;;;;8.02;5.30;;;15.80;95.70;;;15.18;93.05;100461.53;5089165;28;20590;-72
2021/09/19 07:52:42;;;;;;;10.15;5.07;;;15.90;96.10;;;15.40;92.63;100470.28;5106529;28;20048;-71
2021/09/19 07:55:14;;;;;;;7.30;5.07;;;15.90;96.60;;;15.62;92.11;100463.41;5109107;28;20062;-72
2021/09/19 07:57:45;;;;;;;9.93;5.00;;;16.10;96.60;;;15.78;90.49;100469.47;5108092;28;20056;-72
2021/09/19 08:00:14;;;;;;;6.07;4.43;;;16.10;95.80;;;16.00;90.28;100475.47;5100246;28;20036;-72
2021/09/19 08:02:42;;;;;;;5.88;4.50;;;16.30;96.00;;;16.20;89.56;100476.19;5096539;28;20039;-72
2021/09/19 08:05:10;;;;;;;6.93;4.72;;;16.40;96.00;;;16.36;88.59;100474.78;5108121;28;20035;-71
2021/09/19 08:07:37;;;;;;;6.32;3.92;;;16.50;95.90;;;16.54;88.49;100471.22;5109465;28;20516;-71
2021/09/19 08:10:07;;;;;;;8.02;4.35;;;16.70;95.70;;;16.45;85.98;100478.09;5109780;28;20043;-71
2021/09/19 08:12:34;;;;;;;5.25;3.78;;;16.70;93.80;;;16.41;85.51;100476.84;5107401;28;20510;-72
2021/09/19 08:15:02;;;;;;;5.20;3.60;;;16.80;93.40;;;16.15;85.86;100488.91;5092732;28;20044;-71
2021/09/19 08:17:30;;;;;;;6.05;3.63;;;16.70;92.50;;;16.18;87.13;100486.56;5100714;28;20102;-72
2021/09/19 08:19:58;;;;;;;6.65;4.25;;;16.80;93.70;;;16.26;86.14;100490.06;5100198;28;20039;-72
2021/09/19 08:22:25;;;;;;;7.50;4.40;;;16.80;92.60;;;16.27;86.16;100495.34;5106583;28;20036;-72
2021/09/19 08:24:53;;;;;;;8.75;4.47;;;16.90;92.90;;;16.30;86.40;100486.66;5093764;28;20067;-72
2021/09/19 08:27:21;;;;;;;7.50;4.57;;;16.90;93.00;;;16.32;86.11;100478.22;5103490;28;20050;-74
2021/09/19 08:29:49;;;;;;;6.55;4.07;;;16.90;92.40;;;16.38;86.21;100497.38;5091372;28;20085;-73
2021/09/19 08:32:17;;;;;;;7.25;4.25;;;17.00;92.60;;;16.40;86.43;100492.50;5105981;28;20070;-73
2021/09/19 08:34:46;;;;;;;6.88;4.50;;;17.00;92.70;;;16.47;86.99;100495.19;5096622;28;20483;-73
2021/09/19 08:37:13;;;;;;;6.70;4.22;;;17.10;92.80;;;16.49;85.32;100495.81;5101112;28;20040;-73
2021/09/19 08:39:40;;;;;;;7.55;4.13;;;17.10;91.80;;;16.49;84.66;100493.06;5095447;28;20064;-72
2021/09/19 08:42:09;;;;;;;6.40;4.30;;;17.10;91.60;;;16.55;84.36;100499.56;5105149;28;20486;-72
2021/09/19 08:44:36;;;;;;;5.90;3.92;;;17.00;91.20;;;16.68;84.86;100504.94;5095064;28;20051;-73
2021/09/19 08:47:04;;;;;;;6.05;4.10;;;17.10;92.10;;;16.74;84.32;100504.03;5099775;28;20518;-72
2021/09/19 08:49:31;;;;;;;6.85;4.65;;;17.20;91.40;;;16.86;84.64;100500.59;5095087;28;20075;-72
2021/09/19 08:52:00;;;;;;;6.95;4.32;;;17.30;92.00;;;17.02;84.67;100501.91;5107638;28;20112;-73
2021/09/19 08:54:28;;;;;;;5.18;3.78;;;17.40;92.10;;;17.06;83.87;100503.13;5108419;28;20077;-72
2021/09/19 08:56:55;;;;;;;6.10;3.67;;;17.40;91.40;;;17.11;83.73;100508.78;5104071;28;20051;-73
2021/09/19 08:59:22;;;;;;;8.00;4.22;;;17.50;91.40;;;17.07;82.83;100511.16;5088319;28;20094;-73
2021/09/19 09:02:00;;;;;;;6.13;3.97;;;17.50;90.60;;;17.05;83.16;100510.53;5087582;28;20047;-73
2021/09/19 09:04:28;;;;;;;5.70;3.72;;;17.50;90.70;;;17.11;84.28;100517.88;5088505;28;20473;-72
2021/09/19 09:06:56;;;;;;;6.05;4.13;;;17.60;91.30;;;17.15;83.42;100505.38;5107107;28;20764;-73
2021/09/19 09:09:25;;;;;;;6.22;3.60;;;17.70;90.70;;;17.14;82.25;100503.66;5108629;28;20044;-73
2021/09/19 09:12:03;;;;;;;6.03;3.95;;;17.70;89.60;;;17.18;81.87;100504.88;5106818;28;20499;-73
2021/09/19 09:14:37;;;;;;;6.45;3.97;;;17.70;90.00;;;17.28;80.98;100506.28;5108742;28;20040;-72
2021/09/19 09:17:18;;;;;;;6.47;3.58;;;17.80;90.10;;;17.36;80.85;100506.81;5108701;28;20047;-72
2021/09/19 09:19:50;;;;;;;5.97;3.67;;;17.80;89.20;;;17.46;80.80;100506.28;5095539;28;20400;-72
2021/09/19 09:22:22;;;;;;;5.82;3.78;;;17.90;89.00;;;17.47;80.05;100502.44;5087962;28;20044;-73
2021/09/19 09:25:10;;;;;;;7.40;4.40;;;17.90;88.40;;;17.56;80.84;100502.97;5108030;28;20075;-72
2021/09/19 09:27:42;;;;;;;5.85;3.42;;;17.90;89.40;;;17.63;80.98;100502.88;5107140;28;20422;-72
2021/09/19 09:30:17;;;;;;;7.60;4.43;;;17.90;89.60;;;17.64;80.31;100502.66;5108665;28;20075;-73
2021/09/19 09:33:03;;;;;;;8.40;4.20;;;18.00;88.40;;;17.62;80.44;100503.97;5108259;28;20044;-73
2021/09/19 09:35:40;;;;;;;6.18;4.18;;;18.10;88.80;;;17.59;79.61;100513.50;5108341;28;20044;-72
2021/09/19 09:38:24;;;;;;;6.35;4.20;;;18.10;88.10;;;17.66;78.82;100510.69;5108237;28;20047;-72
2021/09/19 09:40:58;;;;;;;6.25;4.28;;;18.20;87.40;;;17.67;78.97;100506.84;5099225;28;20063;-73
2021/09/19 09:43:30;;;;;;;6.90;4.40;;;18.20;87.60;;;17.66;79.42;100510.69;5108198;28;20079;-73
2021/09/19 09:46:11;;;;;;;5.70;3.88;;;18.20;87.70;;;17.67;79.17;100507.69;5106982;28;20142;-73
2021/09/19 09:48:40;;;;;;;;;;;18.20;87.10;;;17.70;78.74;100496.22;5108569;28;20032;-72
2021/09/19 09:51:25;;;;;;;6.35;4.32;;;18.30;87.60;;;17.74;79.09;100497.44;5107612;28;19919;-72
2021/09/19 09:54:01;;;;;;;6.72;4.72;;;18.40;87.20;;;17.82;79.64;100496.28;5088823;28;20590;-72
2021/09/19 09:56:33;;;;;;;10.23;4.72;;;18.40;87.50;;;17.88;78.46;100497.28;5108304;28;20138;-73
2021/09/19 09:59:02;;;;;;;7.50;4.35;;;18.50;86.60;;;17.88;78.23;100491.78;5108048;28;20117;-73
2021/09/19 10:01:34;;;;;;;7.60;4.50;;;18.50;86.20;;;17.90;78.26;100497.91;5108131;28;20040;-72
2021/09/19 10:04:01;;;;;;;6.88;4.60;;;18.50;86.50;;;17.93;78.16;100491.91;5106877;28;20836;-73
2021/09/19 10:06:32;;;;;;;7.15;4.50;;;18.60;86.90;;;17.95;78.02;100501.63;5107546;28;20406;-73
2021/09/19 10:09:00;;;;;;;6.80;4.30;;;18.60;86.10;;;17.95;77.54;100493.38;5089803;28;20044;-73
2021/09/19 10:11:38;;;;;;;7.25;4.97;;;18.60;85.50;;;18.01;78.09;100504.50;5107635;28;20135;-73
2021/09/19 10:14:06;;;;;;;7.25;4.45;;;18.60;86.30;;;17.97;78.08;100502.25;5107272;28;20039;-73
2021/09/19 10:16:38;;;;;;;6.65;4.50;;;18.60;86.00;;;18.00;77.60;100500.91;5106389;28;20410;-73